Time;durP1;ratioP1;P1;durP2;ratioP2;P2;SDS_P1;SDS_P2;PMS_P1;PMS_P2;Temp;Humidity;BMP_temperature;BMP_pressure;BME280_temperature;BME280_humidity;BME280_pressure;Samples;Min_cycle;Max_cycle;Signal;HPM_P1;HPM_P2
2022/06/02 00:00:14;;;;;;;4.80;4.13;;;20.20;99.90;;;;;;5098181;28;20194;-91
2022/06/02 00:02:45;;;;;;;6.03;4.77;;;20.10;99.90;;;;;;5098102;28;20975;-91
2022/06/02 00:05:34;;;;;;;5.20;4.50;;;20.10;99.90;;;;;;5097547;28;20479;-93
2022/06/02 00:08:07;;;;;;;4.53;4.10;;;20.10;99.90;;;;;;5116678;28;20474;-91
2022/06/02 00:10:55;;;;;;;4.63;4.13;;;20.00;99.90;;;;;;5100440;28;20807;-91
2022/06/02 00:13:27;;;;;;;4.60;4.13;;;20.00;99.90;;;;;;5118259;28;20785;-93
2022/06/02 00:16:00;;;;;;;7.40;4.40;;;20.00;99.90;;;;;;5118178;28;20455;-91
2022/06/02 00:18:40;;;;;;;7.37;4.87;;;20.00;99.90;;;;;;5117416;28;20459;-90
2022/06/02 00:21:18;;;;;;;6.63;4.40;;;19.90;99.90;;;;;;5118584;28;20403;-90
2022/06/02 00:24:13;;;;;;;7.10;4.80;;;19.90;99.90;;;;;;5114717;28;20432;-92
2022/06/02 00:26:45;;;;;;;7.43;4.13;;;19.90;99.90;;;;;;5116732;28;20450;-93
2022/06/02 00:29:53;;;;;;;7.30;4.50;;;19.90;99.90;;;;;;5117013;28;20397;-91
2022/06/02 00:32:24;;;;;;;8.80;6.50;;;19.90;99.90;;;;;;5076693;28;20489;-92
2022/06/02 00:35:10;;;;;;;6.17;4.63;;;19.90;99.90;;;;;;5118803;27;20491;-93
2022/06/02 00:37:41;;;;;;;5.13;3.87;;;19.90;99.90;;;;;;5122019;27;20453;-93
2022/06/02 00:40:09;;;;;;;6.17;4.40;;;19.90;99.90;;;;;;5123280;27;20413;-93
2022/06/02 00:43:12;;;;;;;5.20;4.23;;;19.90;99.90;;;;;;5124003;27;20473;-93
2022/06/02 00:45:42;;;;;;;4.87;4.13;;;19.90;99.90;;;;;;5123591;27;20517;-93
2022/06/02 00:48:25;;;;;;;5.20;4.10;;;19.90;99.90;;;;;;5122509;27;20482;-91
2022/06/02 00:51:05;;;;;;;5.07;3.90;;;19.90;99.90;;;;;;5124328;27;20456;-93
2022/06/02 00:53:40;;;;;;;5.83;4.50;;;19.90;99.90;;;;;;5124462;27;20457;-93
2022/06/02 00:59:47;;;;;;;8.53;4.27;;;19.90;99.90;;;;;;5139714;27;20454;-93
2022/06/02 01:02:13;;;;;;;6.03;4.87;;;19.90;99.90;;;;;;5139194;27;20446;-92
2022/06/02 01:04:42;;;;;;;4.30;3.90;;;19.90;99.90;;;;;;5139266;27;20511;-92
2022/06/02 01:07:26;;;;;;;4.77;3.70;;;19.90;99.90;;;;;;5123128;27;20211;-90
2022/06/02 01:10:10;;;;;;;5.57;4.57;;;19.90;99.90;;;;;;5140000;27;20392;-92
2022/06/02 01:12:42;;;;;;;6.20;4.57;;;19.90;99.90;;;;;;5122574;27;20515;-90
2022/06/02 01:15:29;;;;;;;4.60;3.43;;;19.90;99.90;;;;;;5121969;27;20672;-91
2022/06/02 01:18:01;;;;;;;3.70;3.40;;;19.90;99.90;;;;;;5121973;27;21059;-93
2022/06/02 01:20:38;;;;;;;5.57;4.03;;;19.90;99.90;;;;;;5122161;27;20766;-90
2022/06/02 01:23:35;;;;;;;6.00;5.27;;;19.80;99.90;;;;;;5122824;27;20464;-92
2022/06/02 01:26:30;;;;;;;7.10;4.60;;;19.80;99.90;;;;;;5123706;27;20448;-90
2022/06/02 01:29:13;;;;;;;5.73;4.20;;;19.80;99.90;;;;;;5142285;27;20422;-90
2022/06/02 01:31:48;;;;;;;4.30;3.90;;;19.80;99.90;;;;;;5124222;27;20464;-90
2022/06/02 01:34:29;;;;;;;7.57;4.10;;;19.80;99.90;;;;;;5118798;28;20454;-91
2022/06/02 01:37:27;;;;;;;5.40;3.47;;;19.80;99.90;;;;;;5103315;28;20985;-93
2022/06/02 01:40:14;;;;;;;4.67;3.47;;;19.80;99.90;;;;;;5100004;28;20478;-90
2022/06/02 01:42:58;;;;;;;5.97;4.40;;;19.70;99.90;;;;;;5099031;28;20492;-93
2022/06/02 01:45:59;;;;;;;9.00;5.00;;;19.70;99.90;;;;;;5118587;28;20443;-93
2022/06/02 01:48:43;;;;;;;4.03;3.63;;;19.70;99.90;;;;;;5083276;28;20442;-94
2022/06/02 01:51:29;;;;;;;5.77;3.87;;;19.70;99.90;;;;;;5099341;28;20429;-91
2022/06/02 01:54:19;;;;;;;5.30;3.70;;;19.60;99.90;;;;;;5117859;28;20478;-91
2022/06/02 01:57:06;;;;;;;6.30;3.60;;;19.60;99.90;;;;;;5118005;28;20990;-94
2022/06/02 01:59:44;;;;;;;5.27;4.10;;;19.50;99.90;;;;;;5101015;28;20494;-93
2022/06/02 02:02:16;;;;;;;5.17;4.03;;;19.50;99.90;;;;;;5119241;28;20844;-91
2022/06/02 02:04:50;;;;;;;6.93;4.50;;;19.50;99.90;;;;;;5099907;28;20517;-93
2022/06/02 02:07:31;;;;;;;5.47;4.30;;;19.50;99.90;;;;;;5118732;28;20448;-94
2022/06/02 02:10:26;;;;;;;4.70;3.80;;;19.40;99.90;;;;;;5100576;28;20488;-94
2022/06/02 02:13:28;;;;;;;4.63;3.77;;;19.40;99.90;;;;;;5120241;28;21214;-91
2022/06/02 02:16:18;;;;;;;5.67;3.87;;;19.30;99.90;;;;;;5101557;28;20493;-93
2022/06/02 02:19:07;;;;;;;4.33;3.63;;;19.30;99.90;;;;;;5123048;28;20860;-90
2022/06/02 02:21:44;;;;;;;4.77;4.03;;;19.30;99.90;;;;;;5083098;28;20455;-93
2022/06/02 02:24:40;;;;;;;5.00;3.73;;;19.30;99.90;;;;;;5122440;28;20395;-93
2022/06/02 02:27:26;;;;;;;4.63;4.13;;;19.20;99.90;;;;;;5103032;28;20493;-92
2022/06/02 02:30:05;;;;;;;4.67;3.60;;;19.20;99.90;;;;;;5107784;28;20404;-93
2022/06/02 02:32:46;;;;;;;3.87;3.10;;;19.20;99.90;;;;;;5119929;28;20528;-93
2022/06/02 02:35:32;;;;;;;10.87;3.77;;;19.20;99.90;;;;;;5116692;27;20471;-90
2022/06/02 02:38:23;;;;;;;4.77;3.87;;;19.10;99.90;;;;;;5119230;27;20447;-90
2022/06/02 02:40:55;;;;;;;4.83;3.93;;;19.10;99.90;;;;;;5119429;27;20972;-93
2022/06/02 02:43:29;;;;;;;7.57;3.90;;;19.10;99.90;;;;;;5119417;27;20444;-92
2022/06/02 02:46:15;;;;;;;4.40;4.00;;;19.10;99.90;;;;;;5118827;27;20425;-91
2022/06/02 02:48:55;;;;;;;5.67;4.50;;;19.10;99.90;;;;;;5119402;27;20437;-91
2022/06/02 02:51:57;;;;;;;3.90;3.50;;;19.00;99.90;;;;;;5137680;27;20473;-94
2022/06/02 02:54:29;;;;;;;5.73;4.03;;;19.00;99.90;;;;;;5105007;27;20788;-91
2022/06/02 02:57:35;;;;;;;5.10;3.70;;;19.00;99.90;;;;;;5118782;27;20505;-91
2022/06/02 03:00:05;;;;;;;6.23;4.80;;;19.00;99.90;;;;;;5137095;27;20454;-90
2022/06/02 03:02:51;;;;;;;3.93;3.40;;;19.00;99.90;;;;;;5119533;27;20481;-93
2022/06/02 03:05:31;;;;;;;3.70;3.27;;;19.00;99.90;;;;;;5119884;27;20944;-92
2022/06/02 03:08:11;;;;;;;4.30;3.60;;;18.90;99.90;;;;;;5137864;27;20423;-90
2022/06/02 03:10:39;;;;;;;5.70;3.43;;;18.90;99.90;;;;;;5118757;27;20820;-91
2022/06/02 03:13:39;;;;;;;7.17;3.63;;;18.90;99.90;;;;;;5119212;27;20834;-93
2022/06/02 03:16:09;;;;;;;4.57;3.80;;;19.00;99.90;;;;;;5115817;27;20987;-91
2022/06/02 03:19:06;;;;;;;4.90;3.37;;;19.00;99.90;;;;;;5121300;27;20980;-90
2022/06/02 03:22:09;;;;;;;4.97;3.63;;;19.00;99.90;;;;;;5120199;27;20490;-91
2022/06/02 03:24:56;;;;;;;7.30;4.67;;;19.00;99.90;;;;;;5120642;27;20408;-91
2022/06/02 03:27:47;;;;;;;6.00;3.87;;;19.00;99.90;;;;;;5120420;27;20444;-91
2022/06/02 03:30:21;;;;;;;4.73;3.77;;;19.00;99.90;;;;;;5120750;27;20440;-94
2022/06/02 03:33:09;;;;;;;7.30;4.07;;;19.10;99.90;;;;;;5139229;27;20455;-90
2022/06/02 03:35:46;;;;;;;6.20;4.20;;;19.00;99.90;;;;;;5100989;28;20477;-91
2022/06/02 03:38:42;;;;;;;5.67;4.57;;;19.00;99.90;;;;;;5122274;28;20441;-91
2022/06/02 03:41:33;;;;;;;5.70;5.07;;;19.00;99.90;;;;;;5097386;28;20432;-91
2022/06/02 03:44:23;;;;;;;7.37;4.10;;;19.00;99.90;;;;;;5115661;28;20762;-93
2022/06/02 03:47:35;;;;;;;4.97;4.47;;;19.10;99.90;;;;;;5097416;28;20798;-91
2022/06/02 03:50:22;;;;;;;8.40;5.10;;;19.10;99.90;;;;;;5033055;28;20428;-92
2022/06/02 03:53:09;;;;;;;7.43;4.67;;;19.10;99.90;;;;;;5113562;28;20452;-91
2022/06/02 03:55:58;;;;;;;5.97;4.67;;;19.20;99.90;;;;;;5114120;28;20471;-93
2022/06/02 03:58:31;;;;;;;13.27;5.20;;;19.20;99.90;;;;;;5098537;28;20448;-94
2022/06/02 04:01:06;;;;;;;5.07;3.97;;;19.20;99.90;;;;;;5115202;28;20758;-93
2022/06/02 04:03:59;;;;;;;5.63;4.53;;;19.30;99.90;;;;;;5115635;28;20433;-93
2022/06/02 04:06:50;;;;;;;7.40;4.83;;;19.30;99.90;;;;;;5073715;28;20438;-93
2022/06/02 04:09:30;;;;;;;8.63;4.90;;;19.40;99.90;;;;;;5075995;28;20428;-91
2022/06/02 04:15:17;;;;;;;293.43;126.33;;;19.50;99.90;;;;;;5116375;28;20486;-94
2022/06/02 04:18:02;;;;;;;146.00;71.97;;;19.50;99.90;;;;;;5099670;28;20482;-94
2022/06/02 04:20:57;;;;;;;22.90;14.60;;;19.60;99.90;;;;;;5085701;28;20817;-91
2022/06/02 04:23:33;;;;;;;11.17;8.20;;;19.60;99.90;;;;;;5104643;28;20440;-93
2022/06/02 04:26:05;;;;;;;12.03;7.17;;;19.70;99.90;;;;;;5119129;28;20433;-94
2022/06/02 04:28:43;;;;;;;8.13;5.93;;;19.70;99.90;;;;;;5119556;28;20433;-94
2022/06/02 04:31:26;;;;;;;7.50;5.60;;;19.70;99.90;;;;;;5138925;28;20445;-91
2022/06/02 04:34:25;;;;;;;8.43;5.00;;;19.80;99.90;;;;;;5114224;28;20454;-91
2022/06/02 04:37:14;;;;;;;6.13;5.03;;;19.80;99.90;;;;;;5138511;28;21018;-91
2022/06/02 04:39:51;;;;;;;8.27;5.93;;;19.90;99.90;;;;;;5128551;28;20417;-94
2022/06/02 04:42:29;;;;;;;7.43;5.90;;;19.90;99.90;;;;;;5148408;27;20464;-91
2022/06/02 04:45:08;;;;;;;7.80;5.37;;;19.90;99.90;;;;;;5049149;28;20426;-91
2022/06/02 04:48:05;;;;;;;6.10;4.80;;;19.90;99.90;;;;;;5052096;28;20438;-92
2022/06/02 04:50:53;;;;;;;7.37;5.30;;;19.90;99.90;;;;;;5028047;28;20459;-94
2022/06/02 04:53:56;;;;;;;6.73;5.30;;;19.90;99.90;;;;;;5109480;28;20529;-94
2022/06/02 04:56:33;;;;;;;571.00;263.50;;;20.00;99.90;;;;;;5119202;28;20480;-93
2022/06/02 04:59:07;;;;;;;904.67;460.80;;;20.00;99.90;;;;;;5116534;28;20465;-91
2022/06/02 05:01:39;;;;;;;53.63;32.87;;;20.00;99.90;;;;;;5136209;28;20449;-90
2022/06/02 05:04:16;;;;;;;44.80;24.37;;;20.00;99.90;;;;;;5136547;28;20399;-91
2022/06/02 05:06:56;;;;;;;11.80;7.00;;;20.00;99.90;;;;;;5117186;28;20536;-92
2022/06/02 05:09:35;;;;;;;12.63;7.13;;;20.10;99.90;;;;;;5122505;28;20415;-91
2022/06/02 05:12:22;;;;;;;10.50;7.50;;;20.10;99.90;;;;;;5099057;28;20448;-91
2022/06/02 05:15:14;;;;;;;7.80;5.60;;;20.10;99.90;;;;;;5116750;27;20471;-93
2022/06/02 05:18:08;;;;;;;7.07;5.50;;;20.10;99.90;;;;;;5120242;27;20474;-91
2022/06/02 05:20:49;;;;;;;7.30;5.10;;;20.10;99.90;;;;;;5115908;27;20442;-93
2022/06/02 05:23:51;;;;;;;7.57;5.90;;;20.10;99.90;;;;;;5064976;28;20786;-93
2022/06/02 05:26:35;;;;;;;7.00;5.47;;;20.00;99.90;;;;;;5061370;28;20420;-91
2022/06/02 05:29:24;;;;;;;11.77;6.17;;;20.00;99.90;;;;;;5070766;28;20461;-91
2022/06/02 05:32:20;;;;;;;6.20;5.07;;;20.00;99.90;;;;;;5124550;27;20469;-91
2022/06/02 05:35:04;;;;;;;8.97;6.03;;;20.00;99.90;;;;;;5071433;28;21098;-91
2022/06/02 05:37:44;;;;;;;8.13;4.93;;;20.00;99.90;;;;;;5076934;28;20453;-91
2022/06/02 05:40:32;;;;;;;10.70;6.17;;;20.00;99.90;;;;;;5099520;28;20528;-93
2022/06/02 05:43:06;;;;;;;9.13;6.03;;;19.90;99.90;;;;;;5077286;27;20451;-91
2022/06/02 05:45:38;;;;;;;7.37;5.40;;;19.90;99.90;;;;;;5119370;27;20432;-91
2022/06/02 05:48:21;;;;;;;12.83;6.20;;;19.90;99.90;;;;;;5119821;27;20451;-92
2022/06/02 05:50:58;;;;;;;6.70;5.80;;;19.90;99.90;;;;;;5135627;27;20433;-94
2022/06/02 05:53:55;;;;;;;6.00;5.10;;;19.90;99.90;;;;;;5137070;27;20444;-94
2022/06/02 05:56:40;;;;;;;8.83;5.23;;;19.90;99.90;;;;;;5129891;27;20474;-94
2022/06/02 05:59:24;;;;;;;6.63;4.70;;;19.80;99.90;;;;;;5126561;27;20434;-94
2022/06/02 06:01:59;;;;;;;7.10;5.27;;;19.80;99.90;;;;;;5060639;28;20426;-92
2022/06/02 06:04:34;;;;;;;9.80;5.37;;;19.80;99.90;;;;;;5134712;27;20435;-92
2022/06/02 06:07:13;;;;;;;6.03;4.83;;;19.80;99.90;;;;;;5134996;27;20484;-92
2022/06/02 06:09:46;;;;;;;9.70;5.90;;;19.70;99.90;;;;;;5111880;28;20473;-93
2022/06/02 06:12:44;;;;;;;6.93;5.17;;;19.70;99.90;;;;;;5100917;27;20538;-91
2022/06/02 06:15:26;;;;;;;7.57;5.00;;;19.70;99.90;;;;;;5103173;27;20565;-91
2022/06/02 06:18:09;;;;;;;8.67;5.87;;;19.60;99.90;;;;;;5113525;27;20484;-92
2022/06/02 06:21:02;;;;;;;8.30;5.33;;;19.60;99.90;;;;;;5111093;27;20579;-91
2022/06/02 06:23:45;;;;;;;8.43;5.40;;;19.60;99.90;;;;;;5106993;27;20549;-93
2022/06/02 06:26:39;;;;;;;10.60;6.40;;;19.60;99.90;;;;;;5122054;27;20511;-94
2022/06/02 06:29:19;;;;;;;6.90;5.37;;;19.60;99.90;;;;;;5113140;27;20475;-91
2022/06/02 06:32:21;;;;;;;7.63;6.03;;;19.50;99.90;;;;;;5110705;28;20521;-91
2022/06/02 06:35:23;;;;;;;8.03;5.77;;;19.50;99.90;;;;;;5108300;28;20806;-91
2022/06/02 06:37:59;;;;;;;8.60;5.30;;;19.50;99.90;;;;;;5093215;27;20470;-93
2022/06/02 06:41:03;;;;;;;8.17;6.47;;;19.50;99.90;;;;;;5117359;27;20441;-93
2022/06/02 06:43:53;;;;;;;8.67;6.00;;;19.50;99.90;;;;;;5134466;27;20451;-92
2022/06/02 06:46:40;;;;;;;11.00;6.53;;;19.40;99.90;;;;;;5108990;27;20515;-91
2022/06/02 06:49:50;;;;;;;9.10;6.07;;;19.30;99.90;;;;;;5090165;27;20945;-93
2022/06/02 06:52:40;;;;;;;9.87;5.77;;;19.20;99.90;;;;;;5112330;27;21020;-93
2022/06/02 06:55:35;;;;;;;6.97;5.93;;;19.20;99.90;;;;;;5107698;27;20973;-93
2022/06/02 06:58:22;;;;;;;8.20;6.60;;;19.20;99.90;;;;;;5101557;28;20470;-93
2022/06/02 07:01:29;;;;;;;7.90;5.97;;;19.20;99.90;;;;;;5128723;27;20434;-93
2022/06/02 07:04:15;;;;;;;8.47;5.90;;;19.20;99.90;;;;;;5115593;27;20450;-91
2022/06/02 07:07:02;;;;;;;8.27;5.70;;;19.20;99.90;;;;;;5117320;27;20445;-92
2022/06/02 07:09:41;;;;;;;8.60;6.23;;;19.20;99.90;;;;;;5116165;27;20455;-94
2022/06/02 07:15:14;;;;;;;8.07;6.77;;;19.30;99.90;;;;;;5114847;27;20479;-91
2022/06/02 07:17:43;;;;;;;8.53;6.17;;;19.30;99.90;;;;;;5101089;27;20459;-91
2022/06/02 07:20:16;;;;;;;8.97;6.67;;;19.30;99.90;;;;;;5045072;27;20449;-91
2022/06/02 07:23:18;;;;;;;9.20;6.20;;;19.40;99.90;;;;;;5138901;27;20508;-93
2022/06/02 07:26:08;;;;;;;8.40;6.40;;;19.40;99.90;;;;;;5109761;27;20591;-91
2022/06/02 07:28:49;;;;;;;9.93;6.80;;;19.50;99.90;;;;;;5053635;28;20459;-93
2022/06/02 07:31:35;;;;;;;10.63;6.73;;;19.50;99.90;;;;;;5108334;27;20436;-93
2022/06/02 07:34:12;;;;;;;9.13;6.13;;;19.50;99.90;;;;;;5106518;27;20437;-91
2022/06/02 07:37:06;;;;;;;9.20;6.60;;;19.60;99.90;;;;;;5118967;27;20536;-93
2022/06/02 07:39:44;;;;;;;7.93;6.90;;;19.70;99.90;;;;;;5100656;27;20436;-91
2022/06/02 07:42:16;;;;;;;9.83;6.80;;;19.70;99.90;;;;;;5096754;28;20449;-91
2022/06/02 07:44:59;;;;;;;7.90;6.63;;;19.80;99.90;;;;;;5133128;27;20441;-91
2022/06/02 07:47:37;;;;;;;12.40;7.53;;;19.80;99.90;;;;;;5113762;27;20468;-93
2022/06/02 07:50:19;;;;;;;9.10;6.57;;;19.90;99.90;;;;;;5132022;27;20417;-93
2022/06/02 07:53:04;;;;;;;12.40;7.77;;;19.90;99.90;;;;;;5091603;27;20445;-93
2022/06/02 07:55:40;;;;;;;10.60;6.20;;;20.00;99.90;;;;;;5104010;28;20469;-91
2022/06/02 07:58:29;;;;;;;10.03;7.13;;;20.00;99.90;;;;;;5105387;27;20531;-91
2022/06/02 08:01:00;;;;;;;11.97;7.47;;;20.10;99.90;;;;;;5087409;27;20549;-93
2022/06/02 08:03:56;;;;;;;11.90;7.10;;;20.20;99.90;;;;;;5103504;27;20461;-94
2022/06/02 08:06:42;;;;;;;10.40;7.10;;;20.20;99.90;;;;;;5112947;27;20453;-91
2022/06/02 08:09:20;;;;;;;12.20;7.30;;;20.30;99.90;;;;;;5115433;27;20443;-91
2022/06/02 08:12:16;;;;;;;12.20;7.63;;;20.30;99.90;;;;;;5130063;28;20498;-93
2022/06/02 08:15:00;;;;;;;14.80;8.40;;;20.50;99.90;;;;;;5107764;27;20435;-91
2022/06/02 08:17:37;;;;;;;10.50;7.20;;;20.50;99.90;;;;;;5091134;28;20450;-91
2022/06/02 08:20:42;;;;;;;10.97;7.30;;;20.60;99.90;;;;;;5102112;28;20438;-91
2022/06/02 08:23:14;;;;;;;10.13;7.97;;;20.70;99.90;;;;;;5114361;28;20461;-91
2022/06/02 08:25:55;;;;;;;10.93;6.93;;;20.80;99.90;;;;;;5113833;28;20436;-91
2022/06/02 08:28:36;;;;;;;9.33;6.20;;;20.90;99.90;;;;;;5111542;28;21019;-94
2022/06/02 08:31:17;;;;;;;8.60;6.77;;;21.00;99.90;;;;;;5092324;28;20538;-91
2022/06/02 08:33:55;;;;;;;10.00;7.00;;;21.10;99.90;;;;;;5082500;28;20451;-91
2022/06/02 08:36:41;;;;;;;8.13;6.27;;;21.20;99.90;;;;;;5091711;28;20479;-94
2022/06/02 08:39:48;;;;;;;7.83;5.73;;;21.30;99.90;;;;;;5087894;28;20447;-94
2022/06/02 08:42:36;;;;;;;7.50;5.83;;;21.40;99.90;;;;;;5070255;28;20450;-91
2022/06/02 08:45:19;;;;;;;8.20;6.10;;;21.50;99.90;;;;;;5126749;28;20468;-95
2022/06/02 08:48:12;;;;;;;6.77;5.87;;;21.60;99.90;;;;;;5072301;28;20452;-95
2022/06/02 08:51:15;;;;;;;6.17;4.80;;;21.70;99.90;;;;;;5088604;27;20534;-94
2022/06/02 08:54:10;;;;;;;9.53;6.27;;;21.80;99.90;;;;;;5127304;27;20435;-94
2022/06/02 08:57:18;;;;;;;9.90;6.80;;;21.90;99.90;;;;;;5091235;28;20479;-94
2022/06/02 08:59:57;;;;;;;6.47;5.80;;;22.00;99.90;;;;;;5059208;27;20440;-91
2022/06/02 09:03:00;;;;;;;6.67;5.60;;;22.10;99.90;;;;;;5112609;27;20430;-94
2022/06/02 09:05:34;;;;;;;7.60;6.13;;;22.10;99.90;;;;;;5126568;27;21104;-92
2022/06/02 09:08:00;;;;;;;7.70;4.97;;;22.20;99.90;;;;;;5100129;27;20446;-94
2022/06/02 09:10:35;;;;;;;5.50;5.00;;;22.30;99.90;;;;;;5070041;27;20455;-92
2022/06/02 09:13:12;;;;;;;6.80;4.93;;;22.40;99.90;;;;;;5106202;27;20205;-92
2022/06/02 09:15:47;;;;;;;6.60;5.20;;;22.50;99.90;;;;;;5116058;27;20489;-94
2022/06/02 09:18:38;;;;;;;6.20;4.93;;;22.50;99.90;;;;;;5126556;27;20466;-91
2022/06/02 09:21:16;;;;;;;10.43;7.53;;;22.60;99.90;;;;;;5087973;27;20439;-94
2022/06/02 09:24:10;;;;;;;7.37;6.00;;;22.70;99.90;;;;;;5111166;27;20419;-92
2022/06/02 09:26:41;;;;;;;7.00;6.23;;;22.80;99.90;;;;;;5074016;28;20455;-91
2022/06/02 09:29:20;;;;;;;10.20;5.20;;;22.90;99.90;;;;;;5071977;28;20482;-94
2022/06/02 09:32:02;;;;;;;5.70;4.50;;;23.00;99.90;;;;;;5118556;27;20467;-91
2022/06/02 09:34:36;;;;;;;5.47;4.33;;;23.10;99.90;;;;;;5132710;27;20468;-91
2022/06/02 09:37:05;;;;;;;4.97;4.13;;;23.20;99.90;;;;;;5094466;27;20542;-96
2022/06/02 09:39:50;;;;;;;5.20;4.50;;;23.30;99.90;;;;;;5113439;27;20439;-92
2022/06/02 09:42:47;;;;;;;4.87;4.13;;;23.30;99.90;;;;;;5090368;28;20466;-91
2022/06/02 09:45:48;;;;;;;4.60;3.97;;;23.30;99.90;;;;;;5115682;27;20441;-91
2022/06/02 09:48:21;;;;;;;6.40;5.37;;;23.40;99.90;;;;;;5121644;27;20464;-95
2022/06/02 09:51:06;;;;;;;6.87;5.47;;;23.50;99.90;;;;;;5128752;27;20744;-91
2022/06/02 09:53:38;;;;;;;6.57;4.83;;;23.50;99.90;;;;;;5117172;27;20452;-91
2022/06/02 09:56:31;;;;;;;5.70;5.00;;;23.50;99.90;;;;;;5148001;27;20475;-94
2022/06/02 09:59:08;;;;;;;6.30;5.10;;;23.50;99.90;;;;;;5086754;27;20439;-91
2022/06/02 10:01:44;;;;;;;7.50;5.63;;;23.50;99.90;;;;;;5116431;28;20457;-95
2022/06/02 10:04:44;;;;;;;5.13;4.63;;;23.60;99.90;;;;;;5120285;27;20463;-94
2022/06/02 10:07:30;;;;;;;7.60;5.13;;;23.60;99.90;;;;;;5115075;27;20467;-92
2022/06/02 10:10:24;;;;;;;6.67;5.20;;;23.60;99.90;;;;;;5107579;28;20469;-95
2022/06/02 10:13:14;;;;;;;5.03;4.50;;;23.70;99.90;;;;;;5146588;27;20459;-95
2022/06/02 10:16:09;;;;;;;7.10;6.03;;;23.70;99.90;;;;;;5128661;27;20483;-89
2022/06/02 10:19:00;;;;;;;6.20;5.20;;;23.80;99.90;;;;;;5128086;27;20484;-95
2022/06/02 10:21:46;;;;;;;6.30;5.10;;;23.80;99.90;;;;;;5098040;28;20424;-95
2022/06/02 10:24:30;;;;;;;7.93;5.53;;;23.80;99.90;;;;;;5079611;28;20556;-95
2022/06/02 10:27:30;;;;;;;8.17;6.40;;;24.00;99.90;;;;;;5070847;27;20459;-91
2022/06/02 10:30:27;;;;;;;7.10;6.30;;;23.90;99.90;;;;;;5103500;27;20441;-91
2022/06/02 10:33:13;;;;;;;9.40;6.60;;;23.90;99.90;;;;;;5133792;27;20490;-92
2022/06/02 10:36:17;;;;;;;10.67;6.20;;;24.00;99.90;;;;;;5133040;27;20464;-92
2022/06/02 10:39:01;;;;;;;9.63;6.63;;;24.00;99.90;;;;;;5113085;28;20443;-96
2022/06/02 10:41:51;;;;;;;8.40;7.40;;;24.10;99.90;;;;;;5115002;27;20440;-94
2022/06/02 10:44:19;;;;;;;8.13;6.93;;;24.20;99.90;;;;;;5086931;28;20438;-94
2022/06/02 10:47:23;;;;;;;8.67;6.90;;;24.30;99.90;;;;;;5088629;28;20502;-92
2022/06/02 10:49:58;;;;;;;10.87;7.80;;;24.30;99.90;;;;;;5097721;28;20468;-91
2022/06/02 10:52:39;;;;;;;13.70;8.03;;;24.40;99.90;;;;;;5115537;27;20442;-89
2022/06/02 10:55:24;;;;;;;8.40;7.60;;;24.40;99.90;;;;;;5141878;27;20799;-94
2022/06/02 10:58:13;;;;;;;10.20;6.70;;;24.50;99.90;;;;;;5111192;27;20458;-95
2022/06/02 11:01:23;;;;;;;13.70;7.20;;;24.50;99.90;;;;;;5052053;28;20434;-89
2022/06/02 11:04:26;;;;;;;9.50;6.80;;;24.60;99.90;;;;;;5050995;28;20443;-93
2022/06/02 11:07:25;;;;;;;10.40;7.20;;;24.60;99.90;;;;;;5107174;27;20481;-90
2022/06/02 11:10:19;;;;;;;8.60;7.13;;;24.70;99.90;;;;;;5111501;27;20434;-95
2022/06/02 11:13:00;;;;;;;8.30;6.43;;;24.70;99.90;;;;;;5092073;28;20491;-94
2022/06/02 11:15:44;;;;;;;7.47;6.47;;;24.70;99.90;;;;;;5114303;27;20491;-94
2022/06/02 11:18:28;;;;;;;9.30;7.10;;;24.70;99.90;;;;;;5131321;27;20493;-95
2022/06/02 11:21:06;;;;;;;8.27;7.47;;;24.70;99.90;;;;;;5117529;27;20425;-91
2022/06/02 11:24:00;;;;;;;8.47;6.97;;;24.70;99.90;;;;;;5092139;27;20547;-91
2022/06/02 11:26:55;;;;;;;7.10;6.13;;;24.80;99.90;;;;;;5082532;28;20497;-91
2022/06/02 11:29:32;;;;;;;9.20;6.93;;;24.80;99.90;;;;;;5124606;27;20441;-92
2022/06/02 11:32:21;;;;;;;8.40;7.53;;;24.80;99.90;;;;;;5120660;27;20484;-94
2022/06/02 11:35:08;;;;;;;10.07;6.90;;;24.80;99.90;;;;;;5130437;27;20448;-91
2022/06/02 11:38:15;;;;;;;7.37;6.20;;;24.80;99.90;;;;;;5114176;27;20459;-92
2022/06/02 11:41:14;;;;;;;7.57;6.50;;;24.80;99.90;;;;;;5105641;27;20422;-95
2022/06/02 11:44:03;;;;;;;7.60;6.80;;;24.90;99.90;;;;;;5108081;27;20445;-95
2022/06/02 11:46:50;;;;;;;9.03;6.43;;;24.90;99.90;;;;;;5125693;27;20870;-90
2022/06/02 11:49:31;;;;;;;6.23;5.53;;;24.90;99.90;;;;;;5121065;27;20427;-94
2022/06/02 11:52:10;;;;;;;6.93;6.30;;;24.90;99.90;;;;;;5107549;27;21056;-95
2022/06/02 11:54:48;;;;;;;7.17;6.47;;;25.00;99.90;;;;;;5106726;27;20437;-95
2022/06/02 11:57:48;;;;;;;6.77;6.07;;;25.00;99.90;;;;;;5110522;27;20465;-95
2022/06/02 12:00:14;;;;;;;6.67;5.97;;;25.00;99.90;;;;;;5080741;28;20443;-94
2022/06/02 12:03:05;;;;;;;7.23;6.07;;;25.10;99.90;;;;;;5081267;28;20464;-91
2022/06/02 12:05:31;;;;;;;6.93;5.63;;;25.10;99.90;;;;;;5089153;28;20548;-91
2022/06/02 12:08:26;;;;;;;6.33;5.70;;;25.10;99.90;;;;;;5091644;28;20460;-92
2022/06/02 12:11:37;;;;;;;6.90;6.00;;;25.10;99.90;;;;;;5119851;27;20259;-91
2022/06/02 12:14:16;;;;;;;8.53;5.93;;;25.10;99.90;;;;;;5083022;28;20437;-90
2022/06/02 12:17:11;;;;;;;7.33;6.23;;;25.20;99.90;;;;;;5124427;28;20568;-90
2022/06/02 12:20:03;;;;;;;6.77;6.07;;;25.20;99.90;;;;;;5123383;28;21723;-91
2022/06/02 12:23:06;;;;;;;6.20;5.47;;;25.20;99.90;;;;;;5069719;28;20450;-91
2022/06/02 12:26:12;;;;;;;5.93;5.40;;;25.20;99.90;;;;;;5089544;27;20514;-90
2022/06/02 12:29:12;;;;;;;6.03;5.43;;;25.30;99.90;;;;;;5108682;27;20439;-93
2022/06/02 12:32:20;;;;;;;6.10;5.53;;;25.30;99.90;;;;;;5094654;28;20478;-93
2022/06/02 12:35:16;;;;;;;6.40;5.37;;;25.30;99.90;;;;;;5042426;28;20454;-91
2022/06/02 12:38:09;;;;;;;5.57;4.97;;;25.30;99.90;;;;;;5084790;28;20499;-90
2022/06/02 12:40:59;;;;;;;6.30;5.30;;;25.30;99.90;;;;;;5028260;28;20436;-90
2022/06/02 12:43:42;;;;;;;7.13;6.17;;;25.40;99.90;;;;;;5098750;28;20463;-93
2022/06/02 12:46:52;;;;;;;6.57;5.97;;;25.40;99.90;;;;;;5099886;27;20588;-91
2022/06/02 12:49:59;;;;;;;7.50;5.83;;;25.40;99.90;;;;;;5090810;28;20482;-90
2022/06/02 12:52:56;;;;;;;5.30;4.80;;;25.50;99.90;;;;;;5057167;28;20808;-91
2022/06/02 12:55:51;;;;;;;5.40;4.83;;;25.50;99.90;;;;;;5099985;27;21046;-90
2022/06/02 12:58:38;;;;;;;6.00;4.93;;;25.50;99.90;;;;;;5118717;27;20451;-90
2022/06/02 13:01:09;;;;;;;5.77;4.77;;;25.60;99.90;;;;;;5123972;27;20438;-93
2022/06/02 13:03:40;;;;;;;5.20;4.63;;;25.60;99.90;;;;;;5129586;27;20431;-94
2022/06/02 13:06:44;;;;;;;5.40;4.43;;;25.70;99.90;;;;;;5111330;27;20454;-91
2022/06/02 13:09:32;;;;;;;5.00;4.50;;;25.70;99.90;;;;;;5125601;27;20467;-93
2022/06/02 13:12:51;;;;;;;4.57;4.13;;;25.80;99.90;;;;;;5132886;27;20472;-93
2022/06/02 13:15:33;;;;;;;4.53;4.07;;;25.80;99.90;;;;;;5122428;27;20607;-93
2022/06/02 13:18:20;;;;;;;4.97;4.03;;;25.80;99.90;;;;;;5100434;28;20484;-94
2022/06/02 13:20:56;;;;;;;4.00;3.70;;;25.80;99.90;;;;;;5096513;28;20475;-93
2022/06/02 13:23:43;;;;;;;3.80;3.43;;;25.90;99.90;;;;;;5007948;28;20452;-94
2022/06/02 13:26:20;;;;;;;3.83;3.50;;;25.90;99.90;;;;;;5056596;28;20447;-94
2022/06/02 13:28:51;;;;;;;3.97;3.60;;;25.90;99.90;;;;;;5098968;28;20455;-93
2022/06/02 13:31:42;;;;;;;4.60;3.90;;;25.90;99.90;;;;;;5017279;28;20432;-90
2022/06/02 13:34:39;;;;;;;4.23;3.83;;;25.90;99.90;;;;;;5078907;28;20432;-90
2022/06/02 13:37:23;;;;;;;4.70;3.90;;;26.00;99.90;;;;;;4998604;28;20999;-90
2022/06/02 13:40:19;;;;;;;3.90;3.50;;;26.00;99.90;;;;;;5085391;28;20810;-93
2022/06/02 13:42:57;;;;;;;3.07;2.87;;;26.00;99.90;;;;;;4995378;28;20454;-93
2022/06/02 13:45:25;;;;;;;3.50;3.20;;;26.00;99.90;;;;;;5029826;28;21174;-90
2022/06/02 13:48:29;;;;;;;3.37;3.07;;;26.00;99.90;;;;;;5000804;28;20804;-90
2022/06/02 13:51:21;;;;;;;3.03;2.73;;;26.10;99.90;;;;;;5074179;28;20452;-91
2022/06/02 13:57:38;;;;;;;3.73;2.60;;;26.10;99.90;;;;;;5012003;28;20495;-90
2022/06/02 14:00:20;;;;;;;4.27;3.30;;;26.10;99.90;;;;;;5102269;28;20456;-91
2022/06/02 14:03:04;;;;;;;3.07;2.87;;;26.20;99.90;;;;;;5075213;28;20609;-91
2022/06/02 14:06:07;;;;;;;3.73;3.03;;;26.20;99.90;;;;;;5014067;28;20445;-91
2022/06/02 14:08:55;;;;;;;2.17;1.97;;;26.30;99.90;;;;;;5081380;28;20903;-94
2022/06/02 14:11:44;;;;;;;2.40;2.20;;;26.30;99.90;;;;;;5076015;28;20455;-92
2022/06/02 14:14:40;;;;;;;2.33;2.13;;;26.40;99.90;;;;;;5038743;28;20452;-94
2022/06/02 14:17:18;;;;;;;2.80;2.60;;;26.40;99.90;;;;;;5074708;28;20494;-91
2022/06/02 14:20:22;;;;;;;2.77;2.57;;;26.40;99.90;;;;;;5071194;28;20445;-89
2022/06/02 14:23:12;;;;;;;3.00;2.70;;;26.40;99.90;;;;;;5073837;28;20452;-91
2022/06/02 14:26:13;;;;;;;2.30;2.10;;;26.50;99.90;;;;;;5017717;28;20444;-94
2022/06/02 14:28:55;;;;;;;2.47;2.27;;;26.50;99.90;;;;;;5075460;28;20444;-91
2022/06/02 14:31:44;;;;;;;2.80;2.27;;;26.50;99.90;;;;;;5027560;28;20448;-90
2022/06/02 14:34:19;;;;;;;3.20;2.90;;;26.50;99.90;;;;;;5007921;28;20436;-91